sensor_id;sensor_type;location;lat;lon;timestamp;P1;durP1;ratioP1;P2;durP2;ratioP2
47713;SDS011;33475;46.614;13.888;2023-04-24T00:00:09;2.92;;;2.47;;
47713;SDS011;33475;46.614;13.888;2023-04-24T00:02:36;3.80;;;2.85;;
47713;SDS011;33475;46.614;13.888;2023-04-24T00:05:05;2.85;;;2.30;;
47713;SDS011;33475;46.614;13.888;2023-04-24T00:07:32;3.45;;;2.45;;
47713;SDS011;33475;46.614;13.888;2023-04-24T00:09:59;4.13;;;2.38;;
47713;SDS011;33475;46.614;13.888;2023-04-24T00:12:25;3.47;;;2.28;;
47713;SDS011;33475;46.614;13.888;2023-04-24T00:14:52;2.50;;;2.28;;
47713;SDS011;33475;46.614;13.888;2023-04-24T00:17:19;2.40;;;2.15;;
47713;SDS011;33475;46.614;13.888;2023-04-24T00:19:46;2.40;;;2.20;;
47713;SDS011;33475;46.614;13.888;2023-04-24T00:22:13;2.67;;;2.42;;
47713;SDS011;33475;46.614;13.888;2023-04-24T00:24:39;5.30;;;2.55;;
47713;SDS011;33475;46.614;13.888;2023-04-24T00:27:06;3.55;;;3.25;;
47713;SDS011;33475;46.614;13.888;2023-04-24T00:29:32;2.60;;;2.40;;
47713;SDS011;33475;46.614;13.888;2023-04-24T00:31:58;2.97;;;2.65;;
47713;SDS011;33475;46.614;13.888;2023-04-24T00:34:24;3.70;;;2.08;;
47713;SDS011;33475;46.614;13.888;2023-04-24T00:36:50;2.72;;;2.50;;
47713;SDS011;33475;46.614;13.888;2023-04-24T00:39:20;3.33;;;2.58;;
47713;SDS011;33475;46.614;13.888;2023-04-24T00:41:48;3.15;;;2.50;;
47713;SDS011;33475;46.614;13.888;2023-04-24T00:44:16;8.07;;;3.72;;
47713;SDS011;33475;46.614;13.888;2023-04-24T00:46:42;3.33;;;2.83;;
47713;SDS011;33475;46.614;13.888;2023-04-24T00:49:08;3.47;;;3.10;;
47713;SDS011;33475;46.614;13.888;2023-04-24T00:51:34;7.50;;;5.32;;
47713;SDS011;33475;46.614;13.888;2023-04-24T00:54:01;6.78;;;6.05;;
47713;SDS011;33475;46.614;13.888;2023-04-24T00:56:28;4.55;;;3.88;;
47713;SDS011;33475;46.614;13.888;2023-04-24T00:58:54;3.22;;;2.92;;
47713;SDS011;33475;46.614;13.888;2023-04-24T01:01:21;4.00;;;3.70;;
47713;SDS011;33475;46.614;13.888;2023-04-24T01:03:50;7.68;;;3.40;;
47713;SDS011;33475;46.614;13.888;2023-04-24T01:06:18;10.70;;;3.50;;
47713;SDS011;33475;46.614;13.888;2023-04-24T01:08:45;2.80;;;2.55;;
47713;SDS011;33475;46.614;13.888;2023-04-24T01:11:12;3.45;;;3.00;;
47713;SDS011;33475;46.614;13.888;2023-04-24T01:13:38;3.90;;;2.97;;
47713;SDS011;33475;46.614;13.888;2023-04-24T01:16:06;3.17;;;2.88;;
47713;SDS011;33475;46.614;13.888;2023-04-24T01:18:32;2.80;;;2.60;;
47713;SDS011;33475;46.614;13.888;2023-04-24T01:20:59;3.55;;;3.25;;
47713;SDS011;33475;46.614;13.888;2023-04-24T01:23:25;5.85;;;3.53;;
47713;SDS011;33475;46.614;13.888;2023-04-24T01:25:52;9.52;;;4.93;;
47713;SDS011;33475;46.614;13.888;2023-04-24T01:28:18;5.47;;;3.60;;
47713;SDS011;33475;46.614;13.888;2023-04-24T01:30:45;5.43;;;3.40;;
47713;SDS011;33475;46.614;13.888;2023-04-24T01:33:11;4.72;;;3.85;;
47713;SDS011;33475;46.614;13.888;2023-04-24T01:35:37;9.95;;;3.80;;
47713;SDS011;33475;46.614;13.888;2023-04-24T01:38:03;5.30;;;3.70;;
47713;SDS011;33475;46.614;13.888;2023-04-24T01:40:30;5.82;;;3.35;;
47713;SDS011;33475;46.614;13.888;2023-04-24T01:42:57;5.25;;;3.72;;
47713;SDS011;33475;46.614;13.888;2023-04-24T01:45:23;8.32;;;3.45;;
47713;SDS011;33475;46.614;13.888;2023-04-24T01:47:50;9.73;;;3.72;;
47713;SDS011;33475;46.614;13.888;2023-04-24T01:50:16;3.63;;;3.33;;
47713;SDS011;33475;46.614;13.888;2023-04-24T01:52:42;5.50;;;2.90;;
47713;SDS011;33475;46.614;13.888;2023-04-24T01:55:08;8.15;;;3.20;;
47713;SDS011;33475;46.614;13.888;2023-04-24T01:57:35;4.95;;;3.33;;
47713;SDS011;33475;46.614;13.888;2023-04-24T02:00:01;6.20;;;3.05;;
47713;SDS011;33475;46.614;13.888;2023-04-24T02:02:29;3.53;;;3.17;;
47713;SDS011;33475;46.614;13.888;2023-04-24T02:04:56;3.83;;;3.00;;
47713;SDS011;33475;46.614;13.888;2023-04-24T02:07:22;6.70;;;2.90;;
47713;SDS011;33475;46.614;13.888;2023-04-24T02:09:48;4.88;;;3.00;;
47713;SDS011;33475;46.614;13.888;2023-04-24T02:12:15;4.15;;;3.20;;
47713;SDS011;33475;46.614;13.888;2023-04-24T02:14:42;4.93;;;3.03;;
47713;SDS011;33475;46.614;13.888;2023-04-24T02:17:09;4.43;;;2.72;;
47713;SDS011;33475;46.614;13.888;2023-04-24T02:19:37;3.50;;;3.20;;
47713;SDS011;33475;46.614;13.888;2023-04-24T02:22:04;10.10;;;4.32;;
47713;SDS011;33475;46.614;13.888;2023-04-24T02:24:30;3.72;;;3.08;;
47713;SDS011;33475;46.614;13.888;2023-04-24T02:26:56;4.03;;;3.45;;
47713;SDS011;33475;46.614;13.888;2023-04-24T02:29:23;5.40;;;3.10;;
47713;SDS011;33475;46.614;13.888;2023-04-24T02:31:49;3.95;;;3.53;;
47713;SDS011;33475;46.614;13.888;2023-04-24T02:34:15;3.38;;;2.97;;
47713;SDS011;33475;46.614;13.888;2023-04-24T02:36:41;3.22;;;2.92;;
47713;SDS011;33475;46.614;13.888;2023-04-24T02:39:07;3.83;;;3.53;;
47713;SDS011;33475;46.614;13.888;2023-04-24T02:41:34;3.47;;;3.17;;
47713;SDS011;33475;46.614;13.888;2023-04-24T02:44:00;5.35;;;2.85;;
47713;SDS011;33475;46.614;13.888;2023-04-24T02:46:26;3.42;;;3.13;;
47713;SDS011;33475;46.614;13.888;2023-04-24T02:48:52;3.25;;;2.90;;
47713;SDS011;33475;46.614;13.888;2023-04-24T02:51:18;4.72;;;3.38;;
47713;SDS011;33475;46.614;13.888;2023-04-24T02:53:44;5.93;;;3.05;;
47713;SDS011;33475;46.614;13.888;2023-04-24T02:56:10;4.35;;;3.03;;
47713;SDS011;33475;46.614;13.888;2023-04-24T02:58:40;4.38;;;3.33;;
47713;SDS011;33475;46.614;13.888;2023-04-24T03:01:07;7.65;;;3.40;;
47713;SDS011;33475;46.614;13.888;2023-04-24T03:03:35;4.45;;;3.75;;
47713;SDS011;33475;46.614;13.888;2023-04-24T03:06:01;6.45;;;3.67;;
47713;SDS011;33475;46.614;13.888;2023-04-24T03:08:28;8.10;;;3.85;;
47713;SDS011;33475;46.614;13.888;2023-04-24T03:10:54;3.95;;;3.65;;
47713;SDS011;33475;46.614;13.888;2023-04-24T03:13:20;8.63;;;3.47;;
47713;SDS011;33475;46.614;13.888;2023-04-24T03:15:46;6.28;;;3.28;;
47713;SDS011;33475;46.614;13.888;2023-04-24T03:18:12;3.30;;;2.95;;
47713;SDS011;33475;46.614;13.888;2023-04-24T03:20:39;4.05;;;3.38;;
47713;SDS011;33475;46.614;13.888;2023-04-24T03:23:05;3.53;;;3.22;;
47713;SDS011;33475;46.614;13.888;2023-04-24T03:25:31;3.17;;;2.97;;
47713;SDS011;33475;46.614;13.888;2023-04-24T03:27:57;3.60;;;3.10;;
47713;SDS011;33475;46.614;13.888;2023-04-24T03:30:23;3.75;;;3.28;;
47713;SDS011;33475;46.614;13.888;2023-04-24T03:32:49;3.53;;;3.22;;
47713;SDS011;33475;46.614;13.888;2023-04-24T03:35:15;4.80;;;3.15;;
47713;SDS011;33475;46.614;13.888;2023-04-24T03:37:41;3.45;;;3.05;;
47713;SDS011;33475;46.614;13.888;2023-04-24T03:40:08;5.30;;;3.53;;
47713;SDS011;33475;46.614;13.888;2023-04-24T03:42:34;4.32;;;3.05;;
47713;SDS011;33475;46.614;13.888;2023-04-24T03:45:00;3.90;;;3.47;;
47713;SDS011;33475;46.614;13.888;2023-04-24T03:47:27;4.05;;;3.75;;
47713;SDS011;33475;46.614;13.888;2023-04-24T03:49:53;4.32;;;3.38;;
47713;SDS011;33475;46.614;13.888;2023-04-24T03:52:21;6.35;;;3.78;;
47713;SDS011;33475;46.614;13.888;2023-04-24T03:54:47;4.15;;;3.85;;
47713;SDS011;33475;46.614;13.888;2023-04-24T03:57:13;3.85;;;3.55;;
47713;SDS011;33475;46.614;13.888;2023-04-24T03:59:39;6.60;;;4.03;;
47713;SDS011;33475;46.614;13.888;2023-04-24T04:02:05;4.88;;;3.92;;
47713;SDS011;33475;46.614;13.888;2023-04-24T04:04:32;3.90;;;3.50;;
47713;SDS011;33475;46.614;13.888;2023-04-24T04:06:58;6.32;;;3.97;;
47713;SDS011;33475;46.614;13.888;2023-04-24T04:09:28;5.47;;;4.07;;
47713;SDS011;33475;46.614;13.888;2023-04-24T04:11:54;3.90;;;3.60;;
47713;SDS011;33475;46.614;13.888;2023-04-24T04:14:21;3.90;;;3.50;;
47713;SDS011;33475;46.614;13.888;2023-04-24T04:16:48;5.75;;;3.70;;
47713;SDS011;33475;46.614;13.888;2023-04-24T04:19:14;4.70;;;3.70;;
47713;SDS011;33475;46.614;13.888;2023-04-24T04:21:40;3.88;;;3.58;;
47713;SDS011;33475;46.614;13.888;2023-04-24T04:24:06;6.75;;;4.40;;
47713;SDS011;33475;46.614;13.888;2023-04-24T04:26:33;4.40;;;4.00;;
47713;SDS011;33475;46.614;13.888;2023-04-24T04:29:00;4.47;;;4.07;;
47713;SDS011;33475;46.614;13.888;2023-04-24T04:31:27;4.32;;;3.92;;
47713;SDS011;33475;46.614;13.888;2023-04-24T04:33:53;9.15;;;5.75;;
47713;SDS011;33475;46.614;13.888;2023-04-24T04:36:19;4.95;;;4.45;;
47713;SDS011;33475;46.614;13.888;2023-04-24T04:38:45;5.68;;;3.75;;
47713;SDS011;33475;46.614;13.888;2023-04-24T04:41:11;6.25;;;4.13;;
47713;SDS011;33475;46.614;13.888;2023-04-24T04:43:37;4.38;;;3.92;;
47713;SDS011;33475;46.614;13.888;2023-04-24T04:46:05;4.13;;;3.70;;
47713;SDS011;33475;46.614;13.888;2023-04-24T04:48:33;4.18;;;3.63;;
47713;SDS011;33475;46.614;13.888;2023-04-24T04:51:00;6.00;;;4.30;;
47713;SDS011;33475;46.614;13.888;2023-04-24T04:53:26;3.78;;;3.47;;
47713;SDS011;33475;46.614;13.888;2023-04-24T04:55:52;4.65;;;4.13;;
47713;SDS011;33475;46.614;13.888;2023-04-24T04:58:18;3.78;;;3.47;;
47713;SDS011;33475;46.614;13.888;2023-04-24T05:00:45;4.85;;;4.15;;
47713;SDS011;33475;46.614;13.888;2023-04-24T05:03:11;3.97;;;3.67;;
47713;SDS011;33475;46.614;13.888;2023-04-24T05:05:37;3.63;;;3.33;;
47713;SDS011;33475;46.614;13.888;2023-04-24T05:08:09;5.78;;;3.00;;
47713;SDS011;33475;46.614;13.888;2023-04-24T05:10:35;4.40;;;3.05;;
47713;SDS011;33475;46.614;13.888;2023-04-24T05:13:02;4.38;;;4.00;;
47713;SDS011;33475;46.614;13.888;2023-04-24T05:15:29;5.03;;;3.92;;
47713;SDS011;33475;46.614;13.888;2023-04-24T05:17:55;7.35;;;3.78;;
47713;SDS011;33475;46.614;13.888;2023-04-24T05:20:21;5.05;;;3.50;;
47713;SDS011;33475;46.614;13.888;2023-04-24T05:22:48;4.07;;;3.67;;
47713;SDS011;33475;46.614;13.888;2023-04-24T05:25:14;5.78;;;3.85;;
47713;SDS011;33475;46.614;13.888;2023-04-24T05:27:40;5.63;;;3.78;;
47713;SDS011;33475;46.614;13.888;2023-04-24T05:30:06;6.32;;;3.40;;
47713;SDS011;33475;46.614;13.888;2023-04-24T05:32:33;6.55;;;3.83;;
47713;SDS011;33475;46.614;13.888;2023-04-24T05:35:00;7.78;;;3.85;;
47713;SDS011;33475;46.614;13.888;2023-04-24T05:37:26;9.82;;;4.85;;
47713;SDS011;33475;46.614;13.888;2023-04-24T05:39:52;5.18;;;3.50;;
47713;SDS011;33475;46.614;13.888;2023-04-24T05:42:18;4.03;;;3.25;;
47713;SDS011;33475;46.614;13.888;2023-04-24T05:44:45;3.47;;;3.20;;
47713;SDS011;33475;46.614;13.888;2023-04-24T05:47:11;10.10;;;4.47;;
47713;SDS011;33475;46.614;13.888;2023-04-24T05:49:37;3.60;;;3.28;;
47713;SDS011;33475;46.614;13.888;2023-04-24T05:52:03;4.20;;;3.80;;
47713;SDS011;33475;46.614;13.888;2023-04-24T05:54:31;12.05;;;3.83;;
47713;SDS011;33475;46.614;13.888;2023-04-24T05:56:57;8.65;;;3.70;;
47713;SDS011;33475;46.614;13.888;2023-04-24T05:59:23;10.15;;;4.38;;
47713;SDS011;33475;46.614;13.888;2023-04-24T06:01:50;5.25;;;4.13;;
47713;SDS011;33475;46.614;13.888;2023-04-24T06:04:16;6.18;;;3.80;;
47713;SDS011;33475;46.614;13.888;2023-04-24T06:06:42;5.03;;;3.67;;
47713;SDS011;33475;46.614;13.888;2023-04-24T06:09:08;5.13;;;4.25;;
47713;SDS011;33475;46.614;13.888;2023-04-24T06:11:34;8.68;;;3.42;;
47713;SDS011;33475;46.614;13.888;2023-04-24T06:14:00;4.85;;;3.50;;
47713;SDS011;33475;46.614;13.888;2023-04-24T06:16:27;8.10;;;3.80;;
47713;SDS011;33475;46.614;13.888;2023-04-24T06:18:53;5.22;;;4.28;;
47713;SDS011;33475;46.614;13.888;2023-04-24T06:21:20;4.63;;;3.60;;
47713;SDS011;33475;46.614;13.888;2023-04-24T06:23:46;7.65;;;4.72;;
47713;SDS011;33475;46.614;13.888;2023-04-24T06:26:12;4.72;;;4.05;;
47713;SDS011;33475;46.614;13.888;2023-04-24T06:28:38;16.35;;;4.55;;
47713;SDS011;33475;46.614;13.888;2023-04-24T06:31:04;5.05;;;4.15;;
47713;SDS011;33475;46.614;13.888;2023-04-24T06:33:30;7.45;;;3.80;;
47713;SDS011;33475;46.614;13.888;2023-04-24T06:35:56;7.55;;;3.90;;
47713;SDS011;33475;46.614;13.888;2023-04-24T06:38:23;6.43;;;5.00;;
47713;SDS011;33475;46.614;13.888;2023-04-24T06:40:50;4.97;;;4.50;;
47713;SDS011;33475;46.614;13.888;2023-04-24T06:43:16;5.53;;;4.95;;
47713;SDS011;33475;46.614;13.888;2023-04-24T06:45:42;13.00;;;4.82;;
47713;SDS011;33475;46.614;13.888;2023-04-24T06:48:09;7.57;;;4.63;;
47713;SDS011;33475;46.614;13.888;2023-04-24T06:50:35;6.57;;;4.50;;
47713;SDS011;33475;46.614;13.888;2023-04-24T06:53:01;6.78;;;4.10;;
47713;SDS011;33475;46.614;13.888;2023-04-24T06:55:28;6.35;;;3.67;;
47713;SDS011;33475;46.614;13.888;2023-04-24T06:57:54;7.38;;;4.47;;
47713;SDS011;33475;46.614;13.888;2023-04-24T07:00:20;5.15;;;4.72;;
47713;SDS011;33475;46.614;13.888;2023-04-24T07:02:46;4.90;;;4.00;;
47713;SDS011;33475;46.614;13.888;2023-04-24T07:05:12;9.70;;;4.90;;
47713;SDS011;33475;46.614;13.888;2023-04-24T07:07:40;5.60;;;4.75;;
47713;SDS011;33475;46.614;13.888;2023-04-24T07:10:07;6.03;;;3.83;;
47713;SDS011;33475;46.614;13.888;2023-04-24T07:12:33;5.93;;;3.33;;
47713;SDS011;33475;46.614;13.888;2023-04-24T07:15:00;3.85;;;3.40;;
47713;SDS011;33475;46.614;13.888;2023-04-24T07:17:27;9.13;;;3.53;;
47713;SDS011;33475;46.614;13.888;2023-04-24T07:19:53;4.78;;;3.08;;
47713;SDS011;33475;46.614;13.888;2023-04-24T07:22:19;3.67;;;3.17;;
47713;SDS011;33475;46.614;13.888;2023-04-24T07:24:45;5.00;;;2.90;;
47713;SDS011;33475;46.614;13.888;2023-04-24T07:27:11;0.77;;;0.77;;
47713;SDS011;33475;46.614;13.888;2023-04-24T07:29:39;1.10;;;0.90;;
47713;SDS011;33475;46.614;13.888;2023-04-24T07:32:05;7.38;;;3.10;;
47713;SDS011;33475;46.614;13.888;2023-04-24T07:34:33;2.80;;;1.42;;
47713;SDS011;33475;46.614;13.888;2023-04-24T07:36:59;1.02;;;0.50;;
47713;SDS011;33475;46.614;13.888;2023-04-24T07:39:25;0.32;;;0.32;;
47713;SDS011;33475;46.614;13.888;2023-04-24T07:41:52;1.00;;;0.40;;
47713;SDS011;33475;46.614;13.888;2023-04-24T07:44:19;0.63;;;0.63;;
47713;SDS011;33475;46.614;13.888;2023-04-24T07:46:45;0.30;;;0.30;;
47713;SDS011;33475;46.614;13.888;2023-04-24T07:49:11;0.40;;;0.40;;
47713;SDS011;33475;46.614;13.888;2023-04-24T07:51:37;2.10;;;0.70;;
47713;SDS011;33475;46.614;13.888;2023-04-24T07:54:04;2.35;;;0.88;;
47713;SDS011;33475;46.614;13.888;2023-04-24T07:56:31;1.98;;;0.80;;
47713;SDS011;33475;46.614;13.888;2023-04-24T07:58:58;2.45;;;0.93;;
47713;SDS011;33475;46.614;13.888;2023-04-24T08:01:24;4.55;;;1.33;;
47713;SDS011;33475;46.614;13.888;2023-04-24T08:03:50;0.43;;;0.43;;
47713;SDS011;33475;46.614;13.888;2023-04-24T08:06:16;0.60;;;0.60;;
47713;SDS011;33475;46.614;13.888;2023-04-24T08:08:43;0.40;;;0.40;;
47713;SDS011;33475;46.614;13.888;2023-04-24T08:11:09;4.13;;;0.50;;
47713;SDS011;33475;46.614;13.888;2023-04-24T08:13:36;0.57;;;0.40;;
47713;SDS011;33475;46.614;13.888;2023-04-24T08:16:02;0.32;;;0.32;;
47713;SDS011;33475;46.614;13.888;2023-04-24T08:18:28;0.93;;;0.40;;
47713;SDS011;33475;46.614;13.888;2023-04-24T08:20:54;0.30;;;0.30;;
47713;SDS011;33475;46.614;13.888;2023-04-24T08:23:21;0.50;;;0.50;;
47713;SDS011;33475;46.614;13.888;2023-04-24T08:25:47;0.43;;;0.32;;
47713;SDS011;33475;46.614;13.888;2023-04-24T08:28:14;2.67;;;0.50;;
47713;SDS011;33475;46.614;13.888;2023-04-24T08:30:45;0.93;;;0.30;;
47713;SDS011;33475;46.614;13.888;2023-04-24T08:33:12;2.72;;;0.50;;
47713;SDS011;33475;46.614;13.888;2023-04-24T08:35:38;0.30;;;0.30;;
47713;SDS011;33475;46.614;13.888;2023-04-24T08:38:05;0.52;;;0.20;;
47713;SDS011;33475;46.614;13.888;2023-04-24T08:40:32;0.22;;;0.22;;
47713;SDS011;33475;46.614;13.888;2023-04-24T08:42:59;9.32;;;0.47;;
47713;SDS011;33475;46.614;13.888;2023-04-24T08:45:25;0.45;;;0.30;;
47713;SDS011;33475;46.614;13.888;2023-04-24T08:47:52;0.68;;;0.30;;
47713;SDS011;33475;46.614;13.888;2023-04-24T08:50:20;0.85;;;0.30;;
47713;SDS011;33475;46.614;13.888;2023-04-24T08:52:46;0.70;;;0.60;;
47713;SDS011;33475;46.614;13.888;2023-04-24T08:55:13;1.58;;;0.40;;
47713;SDS011;33475;46.614;13.888;2023-04-24T08:57:41;0.40;;;0.40;;
47713;SDS011;33475;46.614;13.888;2023-04-24T09:00:10;1.52;;;0.60;;
47713;SDS011;33475;46.614;13.888;2023-04-24T09:02:36;1.95;;;0.90;;
47713;SDS011;33475;46.614;13.888;2023-04-24T09:05:06;1.27;;;0.60;;
47713;SDS011;33475;46.614;13.888;2023-04-24T09:07:32;0.85;;;0.80;;
47713;SDS011;33475;46.614;13.888;2023-04-24T09:10:02;2.22;;;0.70;;
47713;SDS011;33475;46.614;13.888;2023-04-24T09:12:28;2.50;;;0.80;;
47713;SDS011;33475;46.614;13.888;2023-04-24T09:14:54;4.28;;;2.30;;
47713;SDS011;33475;46.614;13.888;2023-04-24T09:17:21;8.38;;;1.83;;
47713;SDS011;33475;46.614;13.888;2023-04-24T09:19:48;2.50;;;1.00;;
47713;SDS011;33475;46.614;13.888;2023-04-24T09:22:14;1.42;;;0.45;;
47713;SDS011;33475;46.614;13.888;2023-04-24T09:24:40;0.50;;;0.38;;
47713;SDS011;33475;46.614;13.888;2023-04-24T09:27:07;3.80;;;0.68;;
47713;SDS011;33475;46.614;13.888;2023-04-24T09:29:33;1.45;;;0.68;;
47713;SDS011;33475;46.614;13.888;2023-04-24T09:31:59;1.15;;;0.85;;
47713;SDS011;33475;46.614;13.888;2023-04-24T09:34:44;1.05;;;0.60;;
47713;SDS011;33475;46.614;13.888;2023-04-24T09:37:18;4.93;;;1.10;;
47713;SDS011;33475;46.614;13.888;2023-04-24T09:42:37;3.70;;;0.70;;
47713;SDS011;33475;46.614;13.888;2023-04-24T09:45:04;2.97;;;0.60;;
47713;SDS011;33475;46.614;13.888;2023-04-24T09:47:35;0.40;;;0.40;;
47713;SDS011;33475;46.614;13.888;2023-04-24T09:50:08;0.57;;;0.47;;
47713;SDS011;33475;46.614;13.888;2023-04-24T09:52:35;0.60;;;0.50;;
47713;SDS011;33475;46.614;13.888;2023-04-24T09:55:01;1.65;;;0.55;;
47713;SDS011;33475;46.614;13.888;2023-04-24T09:57:27;0.55;;;0.40;;
47713;SDS011;33475;46.614;13.888;2023-04-24T09:59:54;1.75;;;0.30;;
47713;SDS011;33475;46.614;13.888;2023-04-24T10:02:20;0.80;;;0.40;;
47713;SDS011;33475;46.614;13.888;2023-04-24T10:04:56;0.70;;;0.50;;
47713;SDS011;33475;46.614;13.888;2023-04-24T10:07:27;1.27;;;0.40;;
47713;SDS011;33475;46.614;13.888;2023-04-24T10:09:54;2.25;;;0.32;;
47713;SDS011;33475;46.614;13.888;2023-04-24T10:12:20;0.65;;;0.30;;
47713;SDS011;33475;46.614;13.888;2023-04-24T10:14:47;0.85;;;0.38;;
47713;SDS011;33475;46.614;13.888;2023-04-24T10:17:14;0.55;;;0.47;;
47713;SDS011;33475;46.614;13.888;2023-04-24T10:19:40;0.70;;;0.30;;
47713;SDS011;33475;46.614;13.888;2023-04-24T10:22:07;1.05;;;0.30;;
47713;SDS011;33475;46.614;13.888;2023-04-24T10:24:33;0.85;;;0.28;;
47713;SDS011;33475;46.614;13.888;2023-04-24T10:27:02;0.90;;;0.10;;
47713;SDS011;33475;46.614;13.888;2023-04-24T10:29:30;0.55;;;0.30;;
47713;SDS011;33475;46.614;13.888;2023-04-24T10:31:57;0.40;;;0.30;;
47713;SDS011;33475;46.614;13.888;2023-04-24T10:34:23;1.08;;;0.30;;
47713;SDS011;33475;46.614;13.888;2023-04-24T10:36:53;7.47;;;4.88;;
47713;SDS011;33475;46.614;13.888;2023-04-24T10:39:20;0.50;;;0.30;;
47713;SDS011;33475;46.614;13.888;2023-04-24T10:41:48;0.82;;;0.50;;
47713;SDS011;33475;46.614;13.888;2023-04-24T10:44:15;2.85;;;0.70;;
47713;SDS011;33475;46.614;13.888;2023-04-24T10:46:45;0.75;;;0.55;;
47713;SDS011;33475;46.614;13.888;2023-04-24T10:49:15;2.15;;;0.30;;
47713;SDS011;33475;46.614;13.888;2023-04-24T10:51:51;0.47;;;0.40;;
47713;SDS011;33475;46.614;13.888;2023-04-24T10:57:25;0.40;;;0.40;;
47713;SDS011;33475;46.614;13.888;2023-04-24T10:59:39;1.13;;;0.20;;
47713;SDS011;33475;46.614;13.888;2023-04-24T11:02:06;1.70;;;0.38;;
47713;SDS011;33475;46.614;13.888;2023-04-24T11:04:34;2.72;;;0.22;;
47713;SDS011;33475;46.614;13.888;2023-04-24T11:07:00;0.40;;;0.30;;
47713;SDS011;33475;46.614;13.888;2023-04-24T11:09:27;0.60;;;0.60;;
47713;SDS011;33475;46.614;13.888;2023-04-24T11:12:03;1.35;;;1.17;;
47713;SDS011;33475;46.614;13.888;2023-04-24T11:17:32;0.98;;;0.40;;
47713;SDS011;33475;46.614;13.888;2023-04-24T11:20:09;0.65;;;0.40;;
47713;SDS011;33475;46.614;13.888;2023-04-24T11:22:36;0.77;;;0.50;;
47713;SDS011;33475;46.614;13.888;2023-04-24T11:25:03;0.63;;;0.50;;
47713;SDS011;33475;46.614;13.888;2023-04-24T11:27:31;0.60;;;0.40;;
47713;SDS011;33475;46.614;13.888;2023-04-24T11:30:02;0.95;;;0.32;;
47713;SDS011;33475;46.614;13.888;2023-04-24T11:35:02;0.93;;;0.52;;
47713;SDS011;33475;46.614;13.888;2023-04-24T11:37:33;1.38;;;1.05;;
47713;SDS011;33475;46.614;13.888;2023-04-24T11:40:00;4.97;;;1.40;;
47713;SDS011;33475;46.614;13.888;2023-04-24T11:42:27;0.88;;;0.88;;
47713;SDS011;33475;46.614;13.888;2023-04-24T11:44:54;3.00;;;1.90;;
47713;SDS011;33475;46.614;13.888;2023-04-24T11:47:27;2.20;;;0.45;;
47713;SDS011;33475;46.614;13.888;2023-04-24T11:49:54;0.47;;;0.40;;
47713;SDS011;33475;46.614;13.888;2023-04-24T11:52:20;0.75;;;0.70;;
47713;SDS011;33475;46.614;13.888;2023-04-24T11:54:47;1.77;;;0.25;;
47713;SDS011;33475;46.614;13.888;2023-04-24T11:57:14;1.05;;;1.02;;
47713;SDS011;33475;46.614;13.888;2023-04-24T11:59:40;0.50;;;0.30;;
47713;SDS011;33475;46.614;13.888;2023-04-24T12:02:06;0.30;;;0.30;;
47713;SDS011;33475;46.614;13.888;2023-04-24T12:04:39;1.98;;;0.50;;
47713;SDS011;33475;46.614;13.888;2023-04-24T12:07:06;0.95;;;0.35;;
47713;SDS011;33475;46.614;13.888;2023-04-24T12:09:45;4.47;;;0.50;;
47713;SDS011;33475;46.614;13.888;2023-04-24T12:12:12;0.40;;;0.40;;
47713;SDS011;33475;46.614;13.888;2023-04-24T12:17:10;0.60;;;0.60;;
47713;SDS011;33475;46.614;13.888;2023-04-24T12:19:37;0.63;;;0.50;;
47713;SDS011;33475;46.614;13.888;2023-04-24T12:22:04;0.30;;;0.20;;
47713;SDS011;33475;46.614;13.888;2023-04-24T12:24:30;0.73;;;0.52;;
47713;SDS011;33475;46.614;13.888;2023-04-24T12:26:57;0.43;;;0.43;;
47713;SDS011;33475;46.614;13.888;2023-04-24T12:29:23;1.20;;;1.13;;
47713;SDS011;33475;46.614;13.888;2023-04-24T12:31:50;1.80;;;0.63;;
47713;SDS011;33475;46.614;13.888;2023-04-24T12:34:20;0.32;;;0.30;;
47713;SDS011;33475;46.614;13.888;2023-04-24T12:36:47;2.00;;;1.58;;
47713;SDS011;33475;46.614;13.888;2023-04-24T12:39:14;3.60;;;0.80;;
47713;SDS011;33475;46.614;13.888;2023-04-24T12:41:57;0.22;;;0.22;;
47713;SDS011;33475;46.614;13.888;2023-04-24T12:46:56;0.93;;;0.38;;
47713;SDS011;33475;46.614;13.888;2023-04-24T12:49:22;0.88;;;0.30;;
47713;SDS011;33475;46.614;13.888;2023-04-24T12:51:48;0.40;;;0.30;;
47713;SDS011;33475;46.614;13.888;2023-04-24T12:54:15;0.30;;;0.30;;
47713;SDS011;33475;46.614;13.888;2023-04-24T12:56:41;1.08;;;0.40;;
47713;SDS011;33475;46.614;13.888;2023-04-24T12:59:07;0.30;;;0.30;;
47713;SDS011;33475;46.614;13.888;2023-04-24T13:01:33;0.60;;;0.30;;
47713;SDS011;33475;46.614;13.888;2023-04-24T13:03:59;0.43;;;0.43;;
47713;SDS011;33475;46.614;13.888;2023-04-24T13:06:25;2.28;;;0.47;;
47713;SDS011;33475;46.614;13.888;2023-04-24T13:08:52;0.25;;;0.22;;
47713;SDS011;33475;46.614;13.888;2023-04-24T13:11:20;0.60;;;0.28;;
47713;SDS011;33475;46.614;13.888;2023-04-24T13:13:47;2.17;;;0.52;;
47713;SDS011;33475;46.614;13.888;2023-04-24T13:16:13;0.28;;;0.20;;
47713;SDS011;33475;46.614;13.888;2023-04-24T13:18:39;0.40;;;0.30;;
47713;SDS011;33475;46.614;13.888;2023-04-24T13:21:05;0.25;;;0.25;;
47713;SDS011;33475;46.614;13.888;2023-04-24T13:23:31;0.60;;;0.50;;
47713;SDS011;33475;46.614;13.888;2023-04-24T13:25:58;0.82;;;0.80;;
47713;SDS011;33475;46.614;13.888;2023-04-24T13:28:24;0.73;;;0.30;;
47713;SDS011;33475;46.614;13.888;2023-04-24T13:30:51;0.50;;;0.30;;
47713;SDS011;33475;46.614;13.888;2023-04-24T13:33:17;0.50;;;0.50;;
47713;SDS011;33475;46.614;13.888;2023-04-24T13:35:43;0.80;;;0.40;;
47713;SDS011;33475;46.614;13.888;2023-04-24T13:38:09;1.60;;;0.88;;
47713;SDS011;33475;46.614;13.888;2023-04-24T13:40:36;0.82;;;0.50;;
47713;SDS011;33475;46.614;13.888;2023-04-24T13:43:02;3.13;;;0.60;;
47713;SDS011;33475;46.614;13.888;2023-04-24T13:45:28;0.40;;;0.30;;
47713;SDS011;33475;46.614;13.888;2023-04-24T13:47:55;0.32;;;0.32;;
47713;SDS011;33475;46.614;13.888;2023-04-24T13:50:22;0.50;;;0.35;;
47713;SDS011;33475;46.614;13.888;2023-04-24T13:52:48;0.70;;;0.40;;
47713;SDS011;33475;46.614;13.888;2023-04-24T13:55:14;0.30;;;0.25;;
47713;SDS011;33475;46.614;13.888;2023-04-24T13:57:40;0.35;;;0.20;;
47713;SDS011;33475;46.614;13.888;2023-04-24T14:00:07;0.40;;;0.40;;
47713;SDS011;33475;46.614;13.888;2023-04-24T14:02:35;0.65;;;0.20;;
47713;SDS011;33475;46.614;13.888;2023-04-24T14:05:02;0.88;;;0.43;;
47713;SDS011;33475;46.614;13.888;2023-04-24T14:07:28;0.90;;;0.40;;
47713;SDS011;33475;46.614;13.888;2023-04-24T14:09:55;0.40;;;0.20;;
47713;SDS011;33475;46.614;13.888;2023-04-24T14:12:22;0.50;;;0.50;;
47713;SDS011;33475;46.614;13.888;2023-04-24T14:14:48;0.63;;;0.20;;
47713;SDS011;33475;46.614;13.888;2023-04-24T14:17:14;1.52;;;0.25;;
47713;SDS011;33475;46.614;13.888;2023-04-24T14:19:40;0.68;;;0.30;;
47713;SDS011;33475;46.614;13.888;2023-04-24T14:22:07;0.85;;;0.30;;
47713;SDS011;33475;46.614;13.888;2023-04-24T14:24:33;2.45;;;1.40;;
47713;SDS011;33475;46.614;13.888;2023-04-24T14:26:59;1.60;;;0.47;;
47713;SDS011;33475;46.614;13.888;2023-04-24T14:29:25;1.25;;;0.38;;
47713;SDS011;33475;46.614;13.888;2023-04-24T14:31:51;4.00;;;1.25;;
47713;SDS011;33475;46.614;13.888;2023-04-24T14:34:17;2.63;;;0.20;;
47713;SDS011;33475;46.614;13.888;2023-04-24T14:36:44;0.47;;;0.30;;
47713;SDS011;33475;46.614;13.888;2023-04-24T14:39:10;1.23;;;0.40;;
47713;SDS011;33475;46.614;13.888;2023-04-24T14:41:37;0.70;;;0.50;;
47713;SDS011;33475;46.614;13.888;2023-04-24T14:44:04;2.65;;;0.68;;
47713;SDS011;33475;46.614;13.888;2023-04-24T14:46:30;0.88;;;0.80;;